Aviation Digital Data Service (ADDS)

Output produced by TAFs form (1235 UTC 25 July 2017)
found at http://www.aviationweather.gov/adds/tafs/
 
KSBY 251137Z 2512/2612 34005KT P6SM SCT005 
     FM251230 34009KT P6SM SCT250 
     FM252100 03007KT P6SM BKN060 
     FM260700 03004KT P6SM SCT025 BKN040